Airfield :
LOGIN :

Register | Disclaimer

   EN    FR    IT 

 










Legend :    VFR   Marginal VFR   IFR   Intensive IFR   Very Intensive IFR
Visi :
Ceiling :
>= 8 km
>= 3000ft
5 to 8 km
1000 to 3000 ft
1500m to 5 km
500 to 1000 ft
800 to 1500m
200 to 500 ft
< 800m
< 200 ft
Symbols :   Thunderstorms  Fog  Heavy snow  Heavy precipitations  Wind > 20 kt
SIGMETs :     Misc.  Thunderstorms  Icing  Turbulence  Mountain Waves  Volcanic Ashes






- Airport Elevation : 526 ft
- IATA code : LTN


EGGW - London Luton

CURRENT METAR :
  • 240520Z AUTO 31004KT 270V350 3100 BR BKN003 OVC023 11/11 Q1003

EXPIRED METARs :
  • 240450Z AUTO VRB02KT 2700 BR SCT004 BKN013 OVC019 11/10 Q1003
  • 240420Z AUTO 28005KT 2500 BR BKN003 OVC013 11/11 Q1003
  • 240350Z AUTO 29004KT 2300 BR BKN003 OVC007 11/11 Q1004
  • 240320Z AUTO 28007KT 1400 R26/P1500 BR BKN002 OVC007 11/11 Q1004
  • 240250Z AUTO 24004KT 0750 R26/P1500 FG OVC002 11/11 Q1004

TAF TAF EGGW
Valid from the 24 at 00:00 until the 25 at 00:00 UTC


232304Z 2400/2424 10004KT 3000 -DZ BR FEW001 BKN003
TEMPO 2400/2410 1200 DZ BKN001
PROB40
TEMPO 2400/2410 0300 FG
BECMG 2410/2412 6000 NSW SCT006
TEMPO 2412/2415 4000 RA BKN006
BECMG 2415/2418 24010KT 9999
ATIS : +44 1582 395 204



MET'MAP, your aeronautical weather chart ! - Copyright ORBIFLY December 2007 - Disclaimer

ORBIFLY MET'MAP TEAM :

Programming & Development : Alexandra Zaïnal
Concept & Development : Baudouin d'Aumeries
Co-Development & Prog : Marc-Olivier Méhu
Technical & hardware support : Manuel Goepfert

Contact : metmap@orbifly.com




SOURCES & CREDITS :

   NOAA